createdAt,value
2018-09-21T00:00:14.565Z,821.53
2018-09-21T00:02:43.120Z,829.17
2018-09-21T00:05:11.677Z,861.00
2018-09-21T00:07:40.190Z,851.67
2018-09-21T00:10:08.729Z,860.73
2018-09-21T00:12:37.237Z,863.63
2018-09-21T00:15:05.731Z,874.67
2018-09-21T00:17:34.271Z,875.27
2018-09-21T00:20:02.871Z,867.03
2018-09-21T00:22:31.395Z,893.43
2018-09-21T00:24:59.965Z,864.87
2018-09-21T00:27:28.464Z,849.10
2018-09-21T00:29:57.797Z,847.13
2018-09-21T00:32:26.653Z,825.53
2018-09-21T00:34:55.132Z,827.27
2018-09-21T00:37:23.628Z,821.00
2018-09-21T00:39:52.099Z,817.83
2018-09-21T00:42:20.644Z,816.30
2018-09-21T00:44:49.104Z,811.40
2018-09-21T00:47:17.714Z,802.10
2018-09-21T00:49:46.252Z,773.87
2018-09-21T00:52:14.890Z,779.00
2018-09-21T00:54:43.364Z,771.17
2018-09-21T00:57:11.909Z,772.90
2018-09-21T00:59:40.415Z,778.20
2018-09-21T01:02:08.955Z,763.03
2018-09-21T01:04:42.971Z,748.97
2018-09-21T01:07:12.562Z,784.63
2018-09-21T01:09:41.121Z,791.40
2018-09-21T01:12:09.651Z,792.53
2018-09-21T01:14:38.108Z,782.40
2018-09-21T01:17:06.781Z,767.87
2018-09-21T01:19:35.404Z,779.77
2018-09-21T01:22:04.284Z,770.67
2018-09-21T01:24:32.894Z,797.57
2018-09-21T01:27:01.364Z,802.97
2018-09-21T01:29:30.024Z,781.40
2018-09-21T01:31:58.648Z,775.07
2018-09-21T01:34:27.423Z,783.40
2018-09-21T01:36:56.050Z,773.80
2018-09-21T01:39:24.529Z,787.10
2018-09-21T01:41:53.024Z,796.20
2018-09-21T01:44:21.477Z,813.57
2018-09-21T01:46:50.204Z,833.83
2018-09-21T01:49:18.689Z,795.10
2018-09-21T01:51:47.511Z,786.80
2018-09-21T01:54:16.041Z,809.57
2018-09-21T01:56:44.545Z,820.97
2018-09-21T01:59:13.077Z,821.93
2018-09-21T02:01:41.672Z,805.73
2018-09-21T02:04:10.215Z,793.13
2018-09-21T02:06:38.736Z,814.10
2018-09-21T02:09:08.470Z,820.43
2018-09-21T02:11:37.285Z,814.93
2018-09-21T02:14:05.836Z,834.20
2018-09-21T02:16:34.400Z,820.57
2018-09-21T02:19:02.978Z,811.47
2018-09-21T02:21:31.530Z,817.80
2018-09-21T02:24:00.075Z,815.13
2018-09-21T02:26:29.562Z,836.57
2018-09-21T02:28:58.035Z,815.67
2018-09-21T02:31:26.548Z,819.70
2018-09-21T02:33:55.022Z,822.87
2018-09-21T02:36:23.532Z,828.40
2018-09-21T02:38:52.052Z,824.90
2018-09-21T02:41:20.767Z,831.33
2018-09-21T02:43:49.229Z,825.27
2018-09-21T02:46:17.772Z,834.43
2018-09-21T02:48:46.291Z,827.20
2018-09-21T02:51:14.839Z,820.80
2018-09-21T02:53:43.304Z,805.00
2018-09-21T02:56:11.851Z,823.23
2018-09-21T02:58:40.418Z,826.23
2018-09-21T03:01:08.917Z,816.13
2018-09-21T03:03:37.540Z,826.53
2018-09-21T03:06:07.342Z,819.73
2018-09-21T03:08:35.850Z,818.07
2018-09-21T03:11:04.376Z,842.33
2018-09-21T03:13:32.909Z,810.90
2018-09-21T03:16:02.429Z,823.37
2018-09-21T03:18:30.948Z,816.60
2018-09-21T03:20:59.448Z,819.90
2018-09-21T03:23:28.021Z,811.27
2018-09-21T03:25:56.554Z,810.03
2018-09-21T03:28:25.019Z,837.90
2018-09-21T03:30:53.542Z,837.30
2018-09-21T03:33:22.036Z,833.63
2018-09-21T03:35:50.538Z,819.70
2018-09-21T03:38:19.015Z,820.90
2018-09-21T03:40:47.499Z,853.33
2018-09-21T03:43:16.029Z,833.60
2018-09-21T03:45:44.496Z,823.33
2018-09-21T03:48:12.997Z,828.43
2018-09-21T03:50:41.727Z,825.00
2018-09-21T03:53:10.270Z,833.57
2018-09-21T03:55:38.849Z,835.27
2018-09-21T03:58:07.317Z,846.27
2018-09-21T04:00:35.845Z,830.07
2018-09-21T04:03:04.344Z,848.93
2018-09-21T04:05:32.784Z,827.13
2018-09-21T04:08:02.700Z,830.57
2018-09-21T04:10:31.185Z,849.50
2018-09-21T04:12:59.703Z,854.37
2018-09-21T04:15:28.252Z,848.87
2018-09-21T04:17:56.710Z,833.20
2018-09-21T04:20:25.230Z,846.70
2018-09-21T04:23:02.546Z,833.67
2018-09-21T04:25:32.484Z,831.33
2018-09-21T04:28:02.295Z,873.90
2018-09-21T04:30:30.747Z,845.37
2018-09-21T04:32:59.301Z,842.83
2018-09-21T04:35:28.064Z,841.70
2018-09-21T04:37:56.557Z,839.43
2018-09-21T04:40:25.072Z,861.30
2018-09-21T04:42:53.537Z,843.97
2018-09-21T04:45:22.126Z,828.10
2018-09-21T04:47:50.689Z,829.47
2018-09-21T04:50:19.204Z,850.73
2018-09-21T04:52:47.755Z,832.00
2018-09-21T04:55:16.222Z,843.93
2018-09-21T04:57:44.720Z,849.60
2018-09-21T05:00:13.223Z,838.87
2018-09-21T05:02:41.764Z,834.70
2018-09-21T05:05:10.274Z,863.60
2018-09-21T05:07:38.778Z,831.43
2018-09-21T05:10:07.285Z,840.47
2018-09-21T05:12:35.802Z,836.37
2018-09-21T05:15:04.462Z,858.77
2018-09-21T05:17:32.969Z,824.43
2018-09-21T05:20:02.294Z,843.17
2018-09-21T05:22:30.789Z,859.90
2018-09-21T05:24:59.699Z,874.07
2018-09-21T05:27:28.221Z,871.77
2018-09-21T05:29:56.784Z,885.37
2018-09-21T05:32:26.002Z,879.13
2018-09-21T05:34:54.517Z,884.73
2018-09-21T05:37:23.143Z,877.23
2018-09-21T05:39:51.621Z,907.40
2018-09-21T05:42:20.428Z,922.33
2018-09-21T05:44:48.961Z,894.30
2018-09-21T05:47:17.474Z,909.97
2018-09-21T05:49:46.053Z,904.97
2018-09-21T05:52:14.521Z,895.47
2018-09-21T05:54:43.052Z,903.57
2018-09-21T05:57:11.625Z,911.40
2018-09-21T05:59:40.408Z,911.07
2018-09-21T06:02:09.229Z,905.97
2018-09-21T06:04:37.788Z,910.40
2018-09-21T06:07:06.289Z,904.27
2018-09-21T06:09:34.992Z,906.47
2018-09-21T06:12:03.464Z,900.57
2018-09-21T06:14:31.961Z,886.63
2018-09-21T06:17:00.678Z,884.37
2018-09-21T06:19:29.302Z,879.43
2018-09-21T06:21:57.794Z,873.67
2018-09-21T06:24:28.016Z,868.10
2018-09-21T06:26:56.541Z,883.50
2018-09-21T06:29:25.058Z,876.53
2018-09-21T06:31:54.591Z,871.07
2018-09-21T06:34:23.037Z,866.27
2018-09-21T06:36:51.884Z,866.23
2018-09-21T06:39:20.466Z,877.17
2018-09-21T06:41:48.941Z,859.13
2018-09-21T06:44:17.441Z,862.23
2018-09-21T06:46:46.269Z,860.63
2018-09-21T06:49:14.736Z,860.80
2018-09-21T06:51:43.573Z,866.00
2018-09-21T06:54:12.062Z,862.83
2018-09-21T06:56:40.553Z,871.27
2018-09-21T06:59:09.184Z,882.50
2018-09-21T07:01:37.685Z,878.80
2018-09-21T07:04:06.532Z,879.07
2018-09-21T07:06:35.076Z,878.97
2018-09-21T07:09:04.385Z,881.43
2018-09-21T07:11:32.937Z,881.77
2018-09-21T07:14:01.535Z,907.33
2018-09-21T07:16:30.050Z,883.93
2018-09-21T07:18:58.578Z,899.63
2018-09-21T07:21:27.596Z,892.10
2018-09-21T07:23:56.086Z,903.47
2018-09-21T07:26:24.611Z,840.47
2018-09-21T07:28:53.081Z,851.90
2018-09-21T07:31:21.765Z,791.33
2018-09-21T07:33:50.412Z,831.27
2018-09-21T07:36:20.447Z,874.83
2018-09-21T07:38:48.993Z,864.90
2018-09-21T07:41:17.752Z,805.47
2018-09-21T07:43:46.397Z,809.67
2018-09-21T07:46:14.953Z,882.80
2018-09-21T07:48:43.562Z,947.13
2018-09-21T07:51:12.039Z,999.20
2018-09-21T07:53:40.537Z,995.67
2018-09-21T07:56:09.089Z,944.97
2018-09-21T07:58:37.601Z,999.90
2018-09-21T08:01:06.140Z,999.90
2018-09-21T08:03:34.688Z,894.13
2018-09-21T08:06:03.212Z,769.57
2018-09-21T08:08:31.688Z,733.53
2018-09-21T08:11:00.190Z,864.40
2018-09-21T08:13:28.695Z,873.53
2018-09-21T08:15:57.201Z,715.53
2018-09-21T08:18:25.866Z,673.43
2018-09-21T08:20:54.336Z,667.47
2018-09-21T08:23:22.821Z,806.30
2018-09-21T08:25:51.380Z,707.20
2018-09-21T08:28:19.901Z,619.67
2018-09-21T08:30:48.412Z,757.83
2018-09-21T08:33:16.998Z,783.00
2018-09-21T08:35:45.443Z,788.67
2018-09-21T08:38:13.998Z,823.20
2018-09-21T08:40:42.492Z,809.50
2018-09-21T08:43:11.289Z,765.03
2018-09-21T08:45:39.934Z,641.00
2018-09-21T08:48:08.412Z,460.40
2018-09-21T08:50:36.913Z,492.27
2018-09-21T08:53:05.821Z,697.27
2018-09-21T08:55:34.373Z,744.47
2018-09-21T08:58:03.005Z,756.97
2018-09-21T09:00:31.542Z,780.40
2018-09-21T09:03:00.221Z,757.47
2018-09-21T09:05:28.762Z,697.10
2018-09-21T09:07:57.282Z,738.03
2018-09-21T09:10:26.246Z,746.80
2018-09-21T09:12:54.817Z,747.77
2018-09-21T09:15:23.581Z,746.00
2018-09-21T09:17:52.112Z,766.80
2018-09-21T09:20:20.637Z,698.13
2018-09-21T09:22:49.146Z,554.07
2018-09-21T09:25:17.718Z,578.93
2018-09-21T09:27:47.297Z,540.50
2018-09-21T09:30:15.895Z,476.27
2018-09-21T09:32:44.403Z,500.60
2018-09-21T09:35:13.216Z,610.80
2018-09-21T09:37:41.681Z,631.93
2018-09-21T09:40:10.188Z,595.57
2018-09-21T09:42:39.028Z,482.97
2018-09-21T09:45:07.641Z,408.37
2018-09-21T09:47:36.289Z,419.90
2018-09-21T09:50:05.601Z,420.40
2018-09-21T09:52:34.277Z,470.13
2018-09-21T09:55:02.784Z,477.47
2018-09-21T09:57:31.326Z,437.43
2018-09-21T09:59:59.844Z,462.57
2018-09-21T10:02:28.341Z,449.37
2018-09-21T10:04:57.036Z,526.00
2018-09-21T10:07:25.688Z,461.00
2018-09-21T10:09:54.283Z,532.07
2018-09-21T10:12:22.794Z,407.40
2018-09-21T10:14:51.484Z,396.53
2018-09-21T10:17:26.539Z,428.83
2018-09-21T10:19:55.228Z,456.13
2018-09-21T10:22:24.276Z,594.70
2018-09-21T10:24:52.805Z,619.63
2018-09-21T10:27:21.407Z,590.70
2018-09-21T10:29:49.935Z,657.97
2018-09-21T10:32:18.686Z,655.80
2018-09-21T10:34:47.290Z,662.73
2018-09-21T10:37:16.138Z,669.27
2018-09-21T10:39:44.790Z,696.70
2018-09-21T10:42:13.288Z,682.47
2018-09-21T10:44:42.173Z,707.00
2018-09-21T10:47:10.809Z,721.90
2018-09-21T10:49:39.313Z,662.27
2018-09-21T10:52:07.916Z,662.07
2018-09-21T10:54:37.759Z,713.93
2018-09-21T10:57:06.519Z,639.60
2018-09-21T10:59:35.512Z,625.23
2018-09-21T11:02:04.110Z,655.67
2018-09-21T11:04:32.584Z,628.67
2018-09-21T11:07:01.323Z,680.10
2018-09-21T11:09:29.851Z,652.90
2018-09-21T11:11:58.524Z,716.00
2018-09-21T11:14:27.169Z,686.93
2018-09-21T11:16:55.805Z,712.53
2018-09-21T11:19:24.316Z,765.73
2018-09-21T11:21:52.974Z,752.67
2018-09-21T11:24:21.812Z,752.97
2018-09-21T11:26:50.532Z,763.43
2018-09-21T11:29:19.039Z,797.93
2018-09-21T11:31:47.869Z,814.67
2018-09-21T11:34:16.614Z,847.83
2018-09-21T11:36:45.162Z,853.33
2018-09-21T11:39:13.770Z,801.73
2018-09-21T11:41:42.317Z,787.93
2018-09-21T11:44:10.968Z,744.43
2018-09-21T11:46:39.518Z,720.77
2018-09-21T11:49:08.005Z,701.43
2018-09-21T11:51:36.533Z,697.57
2018-09-21T11:54:05.025Z,682.03
2018-09-21T11:56:33.576Z,741.40
2018-09-21T11:59:02.047Z,761.77
2018-09-21T12:01:30.898Z,801.90
2018-09-21T12:03:59.665Z,843.57
2018-09-21T12:06:28.340Z,789.17
2018-09-21T12:08:56.848Z,794.10
2018-09-21T12:11:26.610Z,824.00
2018-09-21T12:13:55.145Z,771.53
2018-09-21T12:16:23.765Z,849.83
2018-09-21T12:18:52.253Z,839.17
2018-09-21T12:21:21.147Z,866.43
2018-09-21T12:23:49.659Z,856.70
2018-09-21T12:26:18.524Z,875.23
2018-09-21T12:28:47.311Z,890.10
2018-09-21T12:31:15.938Z,889.53
2018-09-21T12:33:44.609Z,867.77
2018-09-21T12:36:13.347Z,843.43
2018-09-21T12:38:42.246Z,810.57
2018-09-21T12:41:11.725Z,848.63
2018-09-21T12:43:40.234Z,856.67
2018-09-21T12:46:12.116Z,865.10
2018-09-21T12:48:40.596Z,874.80
2018-09-21T12:51:09.192Z,887.00
2018-09-21T12:53:37.804Z,872.13
2018-09-21T12:56:06.550Z,919.17
2018-09-21T12:58:37.787Z,885.80
2018-09-21T13:01:13.527Z,875.53
2018-09-21T13:03:48.280Z,901.70
2018-09-21T13:06:40.349Z,900.33
2018-09-21T13:09:21.698Z,877.00
2018-09-21T13:14:37.458Z,874.63
2018-09-21T13:17:11.270Z,886.07
2018-09-21T13:19:56.964Z,880.07
2018-09-21T13:22:31.605Z,869.23
2018-09-21T13:25:11.753Z,874.17
2018-09-21T13:30:32.048Z,885.13
2018-09-21T13:33:12.032Z,867.30
2018-09-21T13:35:51.547Z,895.87
2018-09-21T13:38:26.462Z,887.80
2018-09-21T13:41:15.768Z,891.40
2018-09-21T13:44:04.144Z,903.53
2018-09-21T13:46:33.486Z,891.03
2018-09-21T13:49:02.427Z,895.20
2018-09-21T13:51:30.916Z,911.53
2018-09-21T13:53:59.572Z,906.53
2018-09-21T13:56:28.642Z,901.13
2018-09-21T13:58:57.681Z,882.50
2018-09-21T14:01:26.874Z,879.53
2018-09-21T14:03:55.824Z,875.33
2018-09-21T14:06:24.537Z,859.03
2018-09-21T14:08:53.053Z,835.10
2018-09-21T14:11:21.617Z,859.67
2018-09-21T14:13:50.273Z,849.87
2018-09-21T14:16:19.437Z,843.07
2018-09-21T14:18:48.160Z,819.20
2018-09-21T14:21:16.743Z,810.47
2018-09-21T14:23:45.236Z,819.97
2018-09-21T14:26:13.996Z,825.17
2018-09-21T14:28:42.470Z,822.30
2018-09-21T14:31:11.000Z,837.53
2018-09-21T14:33:39.656Z,849.70
2018-09-21T14:36:08.152Z,844.67
2018-09-21T14:38:39.586Z,848.60
2018-09-21T14:41:13.707Z,848.87
2018-09-21T14:43:45.519Z,861.77
2018-09-21T14:46:19.262Z,851.77
2018-09-21T14:48:51.493Z,850.70
2018-09-21T14:51:29.096Z,857.63
2018-09-21T14:54:03.304Z,866.20
2018-09-21T14:56:41.162Z,863.83
2018-09-21T14:59:17.036Z,851.40
2018-09-21T15:01:52.869Z,814.93
2018-09-21T15:04:30.001Z,799.27
2018-09-21T15:07:03.800Z,809.20
2018-09-21T15:09:37.890Z,784.97
2018-09-21T15:12:10.586Z,799.43
2018-09-21T15:14:55.328Z,809.70
2018-09-21T15:17:35.057Z,802.13
2018-09-21T15:20:34.842Z,800.77
2018-09-21T15:23:18.026Z,839.20
2018-09-21T15:25:57.838Z,838.33
2018-09-21T15:28:40.885Z,824.83
2018-09-21T15:34:05.564Z,834.30
2018-09-21T15:39:26.607Z,870.60
2018-09-21T15:42:01.169Z,833.17
2018-09-21T15:44:32.930Z,825.83
2018-09-21T15:47:05.664Z,814.43
2018-09-21T15:49:40.364Z,797.23
2018-09-21T15:52:17.264Z,770.77
2018-09-21T15:54:50.309Z,812.00
2018-09-21T15:57:25.970Z,801.23
2018-09-21T15:59:58.661Z,821.23
2018-09-21T16:02:32.491Z,860.87
2018-09-21T16:05:19.368Z,829.30
2018-09-21T16:08:00.235Z,883.90
2018-09-21T16:10:45.790Z,890.80
2018-09-21T16:13:27.651Z,886.87
2018-09-21T16:16:04.405Z,857.10
2018-09-21T16:18:48.826Z,892.57
2018-09-21T16:21:23.551Z,917.70
2018-09-21T16:24:01.900Z,887.40
2018-09-21T16:26:45.571Z,900.70
2018-09-21T16:32:08.236Z,887.10
2018-09-21T16:34:52.885Z,859.70
2018-09-21T16:37:31.356Z,894.33
2018-09-21T16:40:12.874Z,881.17
2018-09-21T16:42:49.327Z,868.70
2018-09-21T16:45:27.739Z,876.43
2018-09-21T16:48:13.170Z,878.13
2018-09-21T16:50:50.720Z,823.33
2018-09-21T16:56:13.346Z,783.17
2018-09-21T16:58:53.905Z,799.80
2018-09-21T17:01:28.693Z,752.33
2018-09-21T17:04:12.195Z,779.40
2018-09-21T17:06:51.992Z,605.37
2018-09-21T17:09:26.299Z,616.67
2018-09-21T17:12:04.482Z,694.13
2018-09-21T17:14:36.108Z,665.40
2018-09-21T17:17:10.656Z,456.53
2018-09-21T17:19:52.444Z,487.83
2018-09-21T17:22:30.291Z,532.17
2018-09-21T17:25:07.121Z,637.30
2018-09-21T17:27:46.236Z,735.83
2018-09-21T17:30:22.452Z,817.33
2018-09-21T17:32:59.838Z,810.50
2018-09-21T17:35:39.168Z,817.10
2018-09-21T17:38:19.387Z,849.73
2018-09-21T17:40:57.823Z,826.47
2018-09-21T17:43:30.080Z,824.37
2018-09-21T17:46:09.512Z,835.80
2018-09-21T17:48:52.239Z,836.80
2018-09-21T17:51:35.361Z,835.90
2018-09-21T17:54:19.793Z,838.97
2018-09-21T17:56:56.699Z,816.27
2018-09-21T17:59:25.370Z,793.53
2018-09-21T18:01:53.898Z,776.93
2018-09-21T18:04:22.370Z,785.13
2018-09-21T18:06:51.032Z,808.97
2018-09-21T18:09:19.668Z,830.57
2018-09-21T18:11:48.162Z,823.30
2018-09-21T18:14:17.725Z,820.97
2018-09-21T18:16:48.403Z,827.63
2018-09-21T18:19:18.100Z,824.37
2018-09-21T18:21:48.147Z,813.60
2018-09-21T18:24:18.065Z,832.10
2018-09-21T18:26:46.554Z,830.37
2018-09-21T18:29:15.074Z,818.87
2018-09-21T18:31:43.549Z,816.23
2018-09-21T18:34:12.029Z,821.10
2018-09-21T18:36:40.510Z,828.17
2018-09-21T18:39:09.046Z,839.50
2018-09-21T18:41:37.595Z,879.17
2018-09-21T18:44:06.550Z,838.67
2018-09-21T18:46:35.791Z,845.60
2018-09-21T18:49:04.990Z,854.10
2018-09-21T18:51:33.479Z,826.87
2018-09-21T18:54:01.960Z,851.80
2018-09-21T18:56:30.498Z,878.73
2018-09-21T18:58:59.160Z,903.03
2018-09-21T19:01:27.681Z,859.90
2018-09-21T19:03:56.398Z,878.40
2018-09-21T19:06:24.956Z,900.43
2018-09-21T19:08:53.461Z,902.40
2018-09-21T19:11:22.173Z,856.93
2018-09-21T19:13:50.668Z,903.70
2018-09-21T19:16:20.339Z,889.50
2018-09-21T19:18:48.957Z,887.70
2018-09-21T19:21:17.464Z,869.47
2018-09-21T19:23:46.106Z,850.67
2018-09-21T19:26:14.624Z,862.20
2018-09-21T19:28:43.132Z,862.33
2018-09-21T19:31:11.619Z,883.13
2018-09-21T19:33:40.268Z,866.00
2018-09-21T19:36:08.742Z,869.17
2018-09-21T19:38:38.094Z,865.77
2018-09-21T19:41:06.753Z,879.37
2018-09-21T19:43:35.235Z,848.43
2018-09-21T19:46:03.772Z,862.13
2018-09-21T19:48:32.247Z,864.03
2018-09-21T19:51:00.693Z,861.57
2018-09-21T19:53:29.311Z,882.47
2018-09-21T19:55:57.768Z,867.57
2018-09-21T19:58:26.387Z,879.13
2018-09-21T20:00:54.937Z,895.27
2018-09-21T20:03:23.601Z,907.30
2018-09-21T20:05:52.092Z,872.63
2018-09-21T20:08:20.548Z,901.60
2018-09-21T20:10:49.194Z,908.90
2018-09-21T20:13:17.658Z,886.97
2018-09-21T20:15:46.138Z,891.00
2018-09-21T20:18:14.641Z,896.00
2018-09-21T20:20:43.109Z,894.07
2018-09-21T20:23:11.596Z,890.63
2018-09-21T20:25:40.197Z,878.30
2018-09-21T20:28:08.728Z,911.47
2018-09-21T20:30:42.771Z,861.17
2018-09-21T20:33:16.566Z,857.40
2018-09-21T20:35:45.096Z,871.47
2018-09-21T20:38:13.541Z,844.93
2018-09-21T20:40:42.037Z,850.87
2018-09-21T20:43:10.496Z,836.27
2018-09-21T20:45:38.977Z,845.17
2018-09-21T20:48:07.480Z,850.53
2018-09-21T20:50:35.981Z,820.73
2018-09-21T20:53:04.462Z,822.93
2018-09-21T20:55:32.903Z,811.50
2018-09-21T20:58:01.375Z,849.97
2018-09-21T21:00:29.826Z,825.67
2018-09-21T21:02:58.336Z,813.93
2018-09-21T21:05:26.911Z,802.33
2018-09-21T21:07:55.366Z,762.43
2018-09-21T21:10:23.867Z,752.57
2018-09-21T21:12:52.376Z,789.43
2018-09-21T21:15:20.848Z,761.80
2018-09-21T21:17:49.282Z,774.07
2018-09-21T21:20:17.785Z,767.27
2018-09-21T21:22:46.275Z,714.67
2018-09-21T21:25:14.859Z,685.70
2018-09-21T21:27:43.355Z,694.37
2018-09-21T21:30:11.940Z,721.93
2018-09-21T21:32:40.418Z,692.13
2018-09-21T21:35:08.879Z,744.33
2018-09-21T21:37:37.359Z,761.53
2018-09-21T21:40:05.850Z,757.90
2018-09-21T21:42:34.430Z,769.77
2018-09-21T21:45:02.974Z,813.50
2018-09-21T21:47:31.486Z,817.20
2018-09-21T21:49:59.946Z,831.40
2018-09-21T21:52:28.535Z,853.20
2018-09-21T21:54:57.024Z,887.63
2018-09-21T21:57:25.551Z,869.43
2018-09-21T21:59:54.083Z,894.43
2018-09-21T22:02:23.787Z,893.27
2018-09-21T22:04:54.168Z,890.70
2018-09-21T22:07:24.135Z,885.83
2018-09-21T22:09:54.519Z,880.90
2018-09-21T22:12:29.911Z,836.17
2018-09-21T22:14:58.592Z,802.33
2018-09-21T22:17:27.091Z,787.13
2018-09-21T22:19:57.518Z,714.47
2018-09-21T22:22:25.998Z,662.67
2018-09-21T22:24:54.597Z,544.53
2018-09-21T22:27:23.376Z,476.03
2018-09-21T22:29:51.826Z,485.33
2018-09-21T22:32:20.311Z,527.87
2018-09-21T22:34:48.840Z,507.23
2018-09-21T22:37:17.302Z,542.93
2018-09-21T22:39:45.885Z,531.50
2018-09-21T22:42:15.396Z,521.70
2018-09-21T22:44:43.928Z,526.63
2018-09-21T22:47:12.986Z,526.57
2018-09-21T22:49:41.726Z,526.63
2018-09-21T22:52:10.653Z,536.03
2018-09-21T22:54:41.589Z,506.67
2018-09-21T22:57:11.455Z,521.57
2018-09-21T22:59:41.812Z,499.17
2018-09-21T23:02:10.351Z,495.57
2018-09-21T23:04:38.850Z,493.30
2018-09-21T23:07:07.401Z,564.50
2018-09-21T23:09:36.400Z,569.77
2018-09-21T23:12:07.160Z,593.17
2018-09-21T23:14:35.755Z,600.17
2018-09-21T23:17:04.223Z,599.37
2018-09-21T23:19:32.739Z,596.50
2018-09-21T23:22:01.265Z,632.23
2018-09-21T23:24:30.736Z,579.50
2018-09-21T23:27:00.446Z,514.83
2018-09-21T23:29:29.038Z,519.87
2018-09-21T23:31:57.571Z,483.77
2018-09-21T23:34:29.413Z,466.43
2018-09-21T23:36:57.946Z,455.30
2018-09-21T23:39:26.499Z,431.00
2018-09-21T23:41:55.013Z,424.50
2018-09-21T23:44:23.515Z,431.97
2018-09-21T23:46:52.719Z,422.00
2018-09-21T23:49:21.245Z,536.33
2018-09-21T23:51:49.724Z,435.10
2018-09-21T23:54:18.259Z,430.57
2018-09-21T23:56:46.783Z,438.00
2018-09-21T23:59:15.311Z,414.67
